Map

Track Data

SID SEASON NUMBER BASIN SUBBASIN NAME ISO_TIME NATURE LAT LON WMO_WIND WMO_PRES WMO_AGENCY TRACK_TYPE DIST2LAND LANDFALL IFLAG USA_AGENCY USA_ATCF_ID USA_LAT USA_LON USA_RECORD USA_STATUS USA_WIND USA_PRES USA_SSHS USA_R34_NE USA_R34_SE USA_R34_SW USA_R34_NW USA_R50_NE USA_R50_SE USA_R50_SW USA_R50_NW USA_R64_NE USA_R64_SE USA_R64_SW USA_R64_NW USA_POCI USA_ROCI USA_RMW USA_EYE TOKYO_LAT TOKYO_LON TOKYO_GRADE TOKYO_WIND TOKYO_PRES TOKYO_R50_DIR TOKYO_R50_LONG TOKYO_R50_SHORT TOKYO_R30_DIR TOKYO_R30_LONG TOKYO_R30_SHORT TOKYO_LAND CMA_LAT CMA_LON CMA_CAT CMA_WIND CMA_PRES HKO_LAT HKO_LON HKO_CAT HKO_WIND HKO_PRES NEWDELHI_LAT NEWDELHI_LON NEWDELHI_GRADE NEWDELHI_WIND NEWDELHI_PRES NEWDELHI_CI NEWDELHI_DP NEWDELHI_POCI REUNION_LAT REUNION_LON REUNION_TYPE REUNION_WIND REUNION_PRES REUNION_TNUM REUNION_CI REUNION_RMW REUNION_R34_NE REUNION_R34_SE REUNION_R34_SW REUNION_R34_NW REUNION_R50_NE REUNION_R50_SE REUNION_R50_SW REUNION_R50_NW REUNION_R64_NE REUNION_R64_SE REUNION_R64_SW REUNION_R64_NW BOM_LAT BOM_LON BOM_TYPE BOM_WIND BOM_PRES BOM_TNUM BOM_CI BOM_RMW BOM_R34_NE BOM_R34_SE BOM_R34_SW BOM_R34_NW BOM_R50_NE BOM_R50_SE BOM_R50_SW BOM_R50_NW BOM_R64_NE BOM_R64_SE BOM_R64_SW BOM_R64_NW BOM_ROCI BOM_POCI BOM_EYE BOM_POS_METHOD BOM_PRES_METHOD NADI_LAT NADI_LON NADI_CAT NADI_WIND NADI_PRES WELLINGTON_LAT WELLINGTON_LON WELLINGTON_WIND WELLINGTON_PRES DS824_LAT DS824_LON DS824_STAGE DS824_WIND DS824_PRES TD9636_LAT TD9636_LON TD9636_STAGE TD9636_WIND TD9636_PRES TD9635_LAT TD9635_LON TD9635_WIND TD9635_PRES TD9635_ROCI NEUMANN_LAT NEUMANN_LON NEUMANN_CLASS NEUMANN_WIND NEUMANN_PRES MLC_LAT MLC_LON MLC_CLASS MLC_WIND MLC_PRES USA_GUST BOM_GUST BOM_GUST_PER REUNION_GUST REUNION_GUST_PER USA_SEAHGT USA_SEARAD_NE USA_SEARAD_SE USA_SEARAD_SW USA_SEARAD_NW STORM_SPEED STORM_DIR
1910281N18131 1910 47 WP MM NOT_NAMED 1910-10-07 16:00:00 NR 17.6000 130.500 main 773 769 __________O___ -1 17.6000 130.500 7 19 326
1910281N18131 1910 47 WP MM NOT_NAMED 1910-10-07 18:00:00 NR 18.1138 130.143 main 769 770 __________P___ -1 18.1138 130.143 7 18 326
1910281N18131 1910 47 WP MM NOT_NAMED 1910-10-07 21:00:00 NR 18.8601 129.620 main 771 725 __________P___ -1 18.8601 129.620 7 17 326
1910281N18131 1910 47 WP MM NOT_NAMED 1910-10-08 00:00:00 NR 19.5447 129.136 main 725 698 __________P___ -1 19.5447 129.136 7 15 326
1910281N18131 1910 47 WP MM NOT_NAMED 1910-10-08 03:00:00 NR 20.1320 128.719 main 698 691 __________P___ -1 20.1320 128.719 7 14 326
1910281N18131 1910 47 WP MM NOT_NAMED 1910-10-08 04:00:00 NR 20.3000 128.600 main 694 681 __________O___ -1 20.3000 128.600 3 11 327
1910281N18131 1910 47 WP MM NOT_NAMED 1910-10-08 06:00:00 NR 20.5907 128.394 main 685 673 __________P___ -1 20.5907 128.394 3 9 327
1910281N18131 1910 47 WP MM NOT_NAMED 1910-10-08 09:00:00 NR 20.9389 128.157 main 678 668 __________P___ -1 20.9389 128.157 3 7 329
1910281N18131 1910 47 WP MM NOT_NAMED 1910-10-08 12:00:00 NR 21.2261 127.981 main 673 669 __________P___ -1 21.2261 127.981 3 6 332
1910281N18131 1910 47 WP MM NOT_NAMED 1910-10-08 15:00:00 NR 21.5020 127.843 main 671 671 __________P___ -1 21.5020 127.843 3 6 336
1910281N18131 1910 47 WP MM NOT_NAMED 1910-10-08 16:00:00 NR 21.6000 127.800 main 676 659 __________O___ -1 21.6000 127.800 4 8 338
1910281N18131 1910 47 WP MM NOT_NAMED 1910-10-08 18:00:00 NR 21.8516 127.692 main 659 626 __________P___ -1 21.8516 127.692 4 8 340
1910281N18131 1910 47 WP MM NOT_NAMED 1910-10-08 21:00:00 NR 22.2420 127.548 main 626 599 __________P___ -1 22.2420 127.548 4 8 342
1910281N18131 1910 47 WP MM NOT_NAMED 1910-10-09 00:00:00 NR 22.6286 127.427 main 599 574 __________P___ -1 22.6286 127.427 4 8 345
1910281N18131 1910 47 WP MM NOT_NAMED 1910-10-09 03:00:00 NR 22.9893 127.328 main 574 570 __________P___ -1 22.9893 127.328 4 7 346
1910281N18131 1910 47 WP MM NOT_NAMED 1910-10-09 04:00:00 NR 23.1000 127.300 main 570 554 __________O___ -1 23.1000 127.300 4 6 345
1910281N18131 1910 47 WP MM NOT_NAMED 1910-10-09 06:00:00 NR 23.2952 127.244 main 554 547 __________P___ -1 23.2952 127.244 4 6 346
1910281N18131 1910 47 WP MM NOT_NAMED 1910-10-09 09:00:00 NR 23.5564 127.179 main 547 533 __________P___ -1 23.5564 127.179 4 5 349
1910281N18131 1910 47 WP MM NOT_NAMED 1910-10-09 12:00:00 NR 23.7938 127.134 main 533 527 __________P___ -1 23.7938 127.134 4 5 352
1910281N18131 1910 47 WP MM NOT_NAMED 1910-10-09 15:00:00 NR 24.0228 127.106 main 527 525 __________P___ -1 24.0228 127.106 4 5 352
1910281N18131 1910 47 WP MM NOT_NAMED 1910-10-09 16:00:00 NR 24.1000 127.100 main 525 520 __________O___ -1 24.1000 127.100 4 5 0
1910281N18131 1910 47 WP MM NOT_NAMED 1910-10-09 18:00:00 NR 24.2771 127.081 main 520 517 __________P___ -1 24.2771 127.081 4 5 356
1910281N18131 1910 47 WP MM NOT_NAMED 1910-10-09 21:00:00 NR 24.5431 127.064 main 517 514 __________P___ -1 24.5431 127.064 4 5 0
1910281N18131 1910 47 WP MM NOT_NAMED 1910-10-10 00:00:00 NR 24.7982 127.065 main 514 513 __________P___ -1 24.7982 127.065 4 5 0
1910281N18131 1910 47 WP MM NOT_NAMED 1910-10-10 03:00:00 NR 25.0301 127.088 main 513 513 __________P___ -1 25.0301 127.088 4 5 7
1910281N18131 1910 47 WP MM NOT_NAMED 1910-10-10 04:00:00 NR 25.1000 127.100 main 513 513 __________O___ -1 25.1000 127.100 4 4 11
1910281N18131 1910 47 WP MM NOT_NAMED 1910-10-10 06:00:00 NR 25.2202 127.128 main 513 513 __________P___ -1 25.2202 127.128 4 3 15
1910281N18131 1910 47 WP MM NOT_NAMED 1910-10-10 09:00:00 NR 25.3752 127.188 main 524 524 __________P___ -1 25.3752 127.188 4 3 23
1910281N18131 1910 47 WP MM NOT_NAMED 1910-10-10 12:00:00 NR 25.5138 127.268 main 535 535 __________P___ -1 25.5138 127.268 4 3 30
1910281N18131 1910 47 WP MM NOT_NAMED 1910-10-10 15:00:00 NR 25.6516 127.365 main 547 547 __________P___ -1 25.6516 127.365 4 3 32
1910281N18131 1910 47 WP MM NOT_NAMED 1910-10-10 16:00:00 NR 25.7000 127.400 main 547 547 __________O___ -1 25.7000 127.400 4 4 29
1910281N18131 1910 47 WP MM NOT_NAMED 1910-10-10 18:00:00 NR 25.8215 127.472 main 559 559 __________P___ -1 25.8215 127.472 4 4 29
1910281N18131 1910 47 WP MM NOT_NAMED 1910-10-10 21:00:00 NR 26.0102 127.592 main 572 572 __________P___ -1 26.0102 127.592 4 4 31
1910281N18131 1910 47 WP MM NOT_NAMED 1910-10-11 00:00:00 NR 26.1929 127.722 main 586 580 __________P___ -1 26.1929 127.722 4 4 34
1910281N18131 1910 47 WP MM NOT_NAMED 1910-10-11 03:00:00 NR 26.3538 127.856 main 580 580 __________P___ -1 26.3538 127.856 4 4 37
1910281N18131 1910 47 WP MM NOT_NAMED 1910-10-11 04:00:00 NR 26.4000 127.900 main 580 566 __________O___ -1 26.4000 127.900 4 3 43
1910281N18131 1910 47 WP MM NOT_NAMED 1910-10-11 06:00:00 NR 26.4728 127.981 main 566 552 __________P___ -1 26.4728 127.981 4 3 49
1910281N18131 1910 47 WP MM NOT_NAMED 1910-10-11 09:00:00 NR 26.5568 128.102 main 552 548 __________P___ -1 26.5568 128.102 4 3 56
1910281N18131 1910 47 WP MM NOT_NAMED 1910-10-11 12:00:00 NR 26.6216 128.226 main 548 529 __________P___ -1 26.6216 128.226 4 3 62
1910281N18131 1910 47 WP MM NOT_NAMED 1910-10-11 15:00:00 NR 26.6799 128.355 main 529 529 __________P___ -1 26.6799 128.355 4 3 63
1910281N18131 1910 47 WP MM NOT_NAMED 1910-10-11 16:00:00 NR 26.7000 128.400 main 529 525 __________O___ -1 26.7000 128.400 4 2 59
1910281N18131 1910 47 WP MM NOT_NAMED 1910-10-11 18:00:00 NR 26.7419 128.474 main 525 511 __________P___ -1 26.7419 128.474 4 2 58
1910281N18131 1910 47 WP MM NOT_NAMED 1910-10-11 21:00:00 NR 26.8046 128.590 main 511 497 __________P___ -1 26.8046 128.590 4 3 60
1910281N18131 1910 47 WP MM NOT_NAMED 1910-10-12 00:00:00 NR 26.8757 128.732 main 497 479 __________P___ -1 26.8757 128.732 4 3 62
1910281N18131 1910 47 WP MM NOT_NAMED 1910-10-12 03:00:00 NR 26.9647 128.922 main 479 476 __________P___ -1 26.9647 128.922 4 4 62
1910281N18131 1910 47 WP MM NOT_NAMED 1910-10-12 04:00:00 NR 27.0000 129.000 main 476 459 __________O___ -1 27.0000 129.000 4 5 63
1910281N18131 1910 47 WP MM NOT_NAMED 1910-10-12 06:00:00 NR 27.0830 129.185 main 459 439 __________P___ -1 27.0830 129.185 4 6 64
1910281N18131 1910 47 WP MM NOT_NAMED 1910-10-12 09:00:00 NR 27.2264 129.513 main 439 409 __________P___ -1 27.2264 129.513 4 7 64
1910281N18131 1910 47 WP MM NOT_NAMED 1910-10-12 12:00:00 NR 27.3839 129.882 main 409 392 __________P___ -1 27.3839 129.882 4 7 65
1910281N18131 1910 47 WP MM NOT_NAMED 1910-10-12 15:00:00 NR 27.5463 130.270 main 392 380 __________P___ -1 27.5463 130.270 4 8 65
1910281N18131 1910 47 WP MM NOT_NAMED 1910-10-12 16:00:00 NR 27.6000 130.400 main 380 368 __________O___ -1 27.6000 130.400 4 7 65
1910281N18131 1910 47 WP MM NOT_NAMED 1910-10-12 18:00:00 NR 27.7026 130.650 main 368 347 __________P___ -1 27.7026 130.650 4 7 65
1910281N18131 1910 47 WP MM NOT_NAMED 1910-10-12 21:00:00 NR 27.8566 131.030 main 347 339 __________P___ -1 27.8566 131.030 4 7 66
1910281N18131 1910 47 WP MM NOT_NAMED 1910-10-13 00:00:00 NR 28.0079 131.410 main 341 330 __________P___ -1 28.0079 131.410 4 7 66
1910281N18131 1910 47 WP MM NOT_NAMED 1910-10-13 03:00:00 NR 28.1533 131.781 main 330 330 __________P___ -1 28.1533 131.781 4 7 66
1910281N18131 1910 47 WP MM NOT_NAMED 1910-10-13 04:00:00 NR 28.2000 131.900 main 333 326 __________O___ -1 28.2000 131.900 4 7 67
1910281N18131 1910 47 WP MM NOT_NAMED 1910-10-13 06:00:00 NR 28.2862 132.134 main 330 328 __________P___ -1 28.2862 132.134 4 7 67
1910281N18131 1910 47 WP MM NOT_NAMED 1910-10-13 09:00:00 NR 28.4093 132.471 main 338 333 __________P___ -1 28.4093 132.471 4 6 67
1910281N18131 1910 47 WP MM NOT_NAMED 1910-10-13 12:00:00 NR 28.5306 132.794 main 344 335 __________P___ -1 28.5306 132.794 4 6 66
1910281N18131 1910 47 WP MM NOT_NAMED 1910-10-13 15:00:00 NR 28.6561 133.101 main 342 342 __________P___ -1 28.6561 133.101 4 6 65
1910281N18131 1910 47 WP MM NOT_NAMED 1910-10-13 16:00:00 NR 28.7000 133.200 main 347 342 __________O___ -1 28.7000 133.200 7 6 62
1910281N18131 1910 47 WP MM NOT_NAMED 1910-10-13 18:00:00 NR 28.7917 133.393 main 347 344 __________P___ -1 28.7917 133.393 7 6 60
1910281N18131 1910 47 WP MM NOT_NAMED 1910-10-13 21:00:00 NR 28.9375 133.673 main 355 347 __________P___ -1 28.9375 133.673 7 6 58
1910281N18131 1910 47 WP MM NOT_NAMED 1910-10-14 00:00:00 NR 29.0905 133.944 main 351 349 __________P___ -1 29.0905 133.944 7 6 57
1910281N18131 1910 47 WP MM NOT_NAMED 1910-10-14 03:00:00 NR 29.2474 134.211 main 363 356 __________P___ -1 29.2474 134.211 7 6 56
1910281N18131 1910 47 WP MM NOT_NAMED 1910-10-14 04:00:00 NR 29.3000 134.300 main 363 __________O___ -1 29.3000 134.300 7 6 57

Digital Typhoon Data and Search

About IBTrACS Database

This database is a web-friendly format of International Best Track Archive for Climate Stewardship (IBTrACS), a global best track data archive curated by NOAA dating back to 1842.

Updated: 2021-12-06